createdAt,value
2019-02-17T00:02:01.414Z,18.93
2019-02-17T00:04:28.775Z,20.57
2019-02-17T00:06:55.817Z,18.80
2019-02-17T00:09:22.877Z,20.07
2019-02-17T00:11:50.427Z,19.70
2019-02-17T00:14:17.474Z,19.90
2019-02-17T00:16:44.529Z,19.67
2019-02-17T00:19:13.522Z,19.87
2019-02-17T00:21:40.521Z,19.83
2019-02-17T00:24:07.616Z,19.23
2019-02-17T00:26:34.669Z,17.50
2019-02-17T00:29:01.720Z,20.50
2019-02-17T00:31:28.773Z,17.47
2019-02-17T00:33:55.814Z,17.73
2019-02-17T00:36:22.858Z,18.07
2019-02-17T00:38:49.907Z,15.83
2019-02-17T00:41:16.960Z,17.47
2019-02-17T00:43:44.618Z,17.27
2019-02-17T00:46:11.666Z,17.53
2019-02-17T00:48:38.721Z,17.00
2019-02-17T00:51:06.487Z,19.93
2019-02-17T00:53:33.428Z,19.00
2019-02-17T00:56:00.480Z,20.33
2019-02-17T00:58:27.525Z,17.87
2019-02-17T01:00:56.162Z,16.50
2019-02-17T01:03:23.168Z,16.20
2019-02-17T01:05:50.211Z,17.77
2019-02-17T01:08:17.875Z,14.40
2019-02-17T01:10:44.927Z,13.77
2019-02-17T01:13:11.968Z,12.97
2019-02-17T01:15:39.018Z,14.33
2019-02-17T01:18:06.169Z,15.20
2019-02-17T01:20:33.844Z,14.47
2019-02-17T01:23:00.879Z,14.87
2019-02-17T01:25:27.928Z,18.13
2019-02-17T01:27:54.981Z,17.50
2019-02-17T01:30:23.868Z,17.07
2019-02-17T01:32:50.918Z,16.63
2019-02-17T01:35:18.375Z,16.73
2019-02-17T01:37:45.429Z,15.67
2019-02-17T01:40:12.472Z,16.53
2019-02-17T01:42:40.037Z,15.47
2019-02-17T01:45:07.080Z,15.30
2019-02-17T01:47:34.128Z,14.57
2019-02-17T01:50:01.589Z,15.77
2019-02-17T01:52:28.640Z,14.67
2019-02-17T01:54:55.683Z,15.60
2019-02-17T01:57:22.836Z,15.93
2019-02-17T01:59:49.881Z,12.80
2019-02-17T02:02:16.939Z,14.57
2019-02-17T02:04:44.186Z,14.33
2019-02-17T02:07:11.238Z,14.10
2019-02-17T02:09:38.488Z,14.50
2019-02-17T02:12:05.739Z,14.30
2019-02-17T02:14:32.788Z,11.93
2019-02-17T02:16:59.841Z,14.47
2019-02-17T02:19:27.091Z,14.67
2019-02-17T02:21:54.143Z,16.07
2019-02-17T02:24:21.187Z,14.57
2019-02-17T02:26:48.236Z,17.73
2019-02-17T02:29:15.295Z,14.73
2019-02-17T02:31:42.332Z,13.53
2019-02-17T02:34:09.394Z,16.37
2019-02-17T02:36:36.435Z,15.97
2019-02-17T02:39:03.588Z,16.33
2019-02-17T02:41:34.658Z,15.07
2019-02-17T02:43:57.779Z,17.00
2019-02-17T02:46:24.826Z,14.73
2019-02-17T02:48:53.772Z,15.87
2019-02-17T02:51:20.779Z,15.93
2019-02-17T02:53:47.819Z,15.87
2019-02-17T02:56:14.870Z,15.10
2019-02-17T02:58:41.917Z,16.17
2019-02-17T03:01:08.965Z,15.13
2019-02-17T03:03:36.016Z,14.90
2019-02-17T03:06:03.060Z,16.47
2019-02-17T03:08:30.106Z,14.87
2019-02-17T03:10:57.159Z,16.33
2019-02-17T03:13:24.211Z,16.70
2019-02-17T03:15:51.662Z,16.77
2019-02-17T03:18:19.427Z,14.63
2019-02-17T03:20:46.784Z,14.87
2019-02-17T03:23:13.841Z,14.87
2019-02-17T03:25:40.879Z,13.03
2019-02-17T03:28:07.929Z,14.13
2019-02-17T03:30:34.993Z,14.47
2019-02-17T03:33:02.030Z,15.47
2019-02-17T03:35:29.332Z,13.87
2019-02-17T03:37:56.327Z,12.83
2019-02-17T03:40:23.374Z,14.67
2019-02-17T03:42:50.430Z,13.33
2019-02-17T03:45:19.624Z,13.60
2019-02-17T03:47:46.679Z,13.20
2019-02-17T03:50:14.955Z,13.80
2019-02-17T03:52:42.126Z,14.60
2019-02-17T03:55:09.149Z,13.87
2019-02-17T03:57:36.205Z,12.70
2019-02-17T04:00:03.451Z,13.73
2019-02-17T04:02:30.504Z,13.40
2019-02-17T04:04:57.860Z,14.67
2019-02-17T04:07:24.902Z,13.97
2019-02-17T04:09:51.951Z,14.80
2019-02-17T04:12:19.008Z,15.80
2019-02-17T04:14:46.047Z,13.80
2019-02-17T04:17:15.005Z,15.67
2019-02-17T04:19:42.044Z,14.03
2019-02-17T04:22:09.160Z,14.60
2019-02-17T04:24:36.209Z,14.13
2019-02-17T04:27:03.247Z,10.37
2019-02-17T04:29:30.290Z,11.47
2019-02-17T04:31:57.333Z,14.10
2019-02-17T04:34:24.385Z,12.20
2019-02-17T04:36:51.441Z,12.03
2019-02-17T04:39:18.432Z,11.60
2019-02-17T04:41:45.430Z,11.97
2019-02-17T04:44:12.476Z,11.43
2019-02-17T04:46:41.011Z,12.20
2019-02-17T04:49:08.223Z,12.17
2019-02-17T04:51:35.206Z,11.03
2019-02-17T04:54:02.347Z,11.87
2019-02-17T04:56:29.353Z,11.93
2019-02-17T04:58:56.409Z,10.93
2019-02-17T05:01:23.866Z,11.93
2019-02-17T05:03:50.909Z,12.37
2019-02-17T05:06:18.015Z,11.63
2019-02-17T05:08:45.417Z,13.17
2019-02-17T05:11:12.471Z,13.30
2019-02-17T05:13:39.623Z,11.40
2019-02-17T05:16:06.869Z,13.20
2019-02-17T05:18:33.942Z,12.97
2019-02-17T05:21:00.967Z,12.47
2019-02-17T05:23:28.014Z,13.27
2019-02-17T05:25:55.070Z,14.17
2019-02-17T05:28:22.112Z,13.87
2019-02-17T05:30:53.484Z,12.33
2019-02-17T05:33:19.857Z,13.73
2019-02-17T05:35:47.147Z,13.13
2019-02-17T05:38:14.203Z,13.67
2019-02-17T05:40:41.247Z,14.47
2019-02-17T05:43:08.299Z,12.53
2019-02-17T05:45:35.371Z,14.07
2019-02-17T05:48:02.390Z,12.03
2019-02-17T05:50:29.444Z,8.33
2019-02-17T05:52:56.494Z,10.33
2019-02-17T05:55:23.546Z,13.00
2019-02-17T05:57:50.590Z,12.17
2019-02-17T06:00:19.587Z,11.23
2019-02-17T06:02:48.573Z,11.93
2019-02-17T06:05:15.645Z,12.13
2019-02-17T06:07:42.671Z,11.50
2019-02-17T06:10:09.719Z,11.17
2019-02-17T06:12:36.771Z,11.07
2019-02-17T06:15:03.926Z,11.40
2019-02-17T06:17:30.966Z,11.83
2019-02-17T06:19:58.117Z,8.27
2019-02-17T06:22:25.166Z,10.77
2019-02-17T06:24:52.220Z,10.90
2019-02-17T06:27:19.263Z,10.93
2019-02-17T06:29:46.310Z,12.17
2019-02-17T06:32:13.364Z,9.80
2019-02-17T06:34:40.524Z,10.63
2019-02-17T06:37:07.667Z,9.83
2019-02-17T06:39:34.817Z,10.00
2019-02-17T06:42:01.861Z,9.57
2019-02-17T06:44:28.911Z,8.90
2019-02-17T06:46:59.052Z,11.43
2019-02-17T06:49:26.082Z,8.77
2019-02-17T06:51:57.335Z,8.40
2019-02-17T06:54:24.429Z,10.20
2019-02-17T06:56:53.171Z,11.73
2019-02-17T06:59:20.215Z,11.90
2019-02-17T07:01:47.367Z,9.90
2019-02-17T07:04:14.424Z,8.93
2019-02-17T07:06:42.395Z,8.77
2019-02-17T07:09:09.430Z,10.07
2019-02-17T07:11:36.606Z,11.17
2019-02-17T07:14:03.740Z,11.03
2019-02-17T07:16:32.623Z,8.93
2019-02-17T07:18:59.621Z,9.17
2019-02-17T07:21:27.820Z,10.50
2019-02-17T07:23:54.900Z,10.30
2019-02-17T07:26:21.899Z,9.97
2019-02-17T07:28:49.511Z,10.83
2019-02-17T07:31:16.559Z,8.30
2019-02-17T07:33:46.503Z,8.80
2019-02-17T07:36:13.626Z,9.37
2019-02-17T07:38:40.667Z,8.57
2019-02-17T07:41:07.722Z,8.17
2019-02-17T07:43:34.764Z,9.40
2019-02-17T07:46:01.813Z,8.80
2019-02-17T07:48:28.867Z,8.80
2019-02-17T07:50:56.843Z,5.63
2019-02-17T07:53:22.959Z,6.57
2019-02-17T07:55:50.013Z,6.30
2019-02-17T07:58:17.057Z,6.93
2019-02-17T08:00:44.058Z,6.23
2019-02-17T08:03:11.050Z,7.30
2019-02-17T08:05:38.561Z,7.40
2019-02-17T08:08:06.075Z,8.80
2019-02-17T08:10:33.534Z,6.17
2019-02-17T08:13:00.577Z,4.83
2019-02-17T08:15:27.625Z,7.67
2019-02-17T08:17:54.677Z,6.83
2019-02-17T08:20:21.723Z,8.10
2019-02-17T08:22:48.770Z,6.80
2019-02-17T08:25:21.935Z,7.35
2019-02-17T08:27:42.979Z,9.55
2019-02-17T08:30:12.388Z,6.50
2019-02-17T08:32:40.128Z,6.22
2019-02-17T08:35:07.700Z,7.47
2019-02-17T08:37:34.708Z,17.63
2019-02-17T08:40:01.697Z,24.47
2019-02-17T08:42:29.104Z,13.60
2019-02-17T08:44:56.103Z,6.90
2019-02-17T08:47:23.196Z,9.87
2019-02-17T08:49:50.405Z,6.70
2019-02-17T08:52:17.449Z,7.43
2019-02-17T08:54:44.600Z,6.30
2019-02-17T08:57:11.760Z,7.17
2019-02-17T08:59:38.878Z,7.47
2019-02-17T09:02:06.406Z,6.50
2019-02-17T09:04:33.205Z,6.50
2019-02-17T09:07:00.251Z,7.10
2019-02-17T09:09:28.534Z,6.10
2019-02-17T09:11:55.887Z,5.93
2019-02-17T09:14:22.940Z,7.10
2019-02-17T09:16:52.542Z,6.77
2019-02-17T09:19:19.668Z,6.37
2019-02-17T09:21:46.648Z,7.53
2019-02-17T09:24:13.687Z,7.27
2019-02-17T09:26:42.277Z,7.50
2019-02-17T09:29:09.325Z,8.03
2019-02-17T09:31:36.347Z,8.60
2019-02-17T09:34:03.315Z,9.13
2019-02-17T09:36:30.364Z,7.93
2019-02-17T09:38:57.417Z,6.03
2019-02-17T09:41:24.461Z,6.13
2019-02-17T09:43:51.514Z,6.20
2019-02-17T09:46:18.436Z,6.40
2019-02-17T09:48:45.815Z,7.00
2019-02-17T09:51:12.867Z,7.07
2019-02-17T09:53:39.929Z,6.50
2019-02-17T09:56:07.066Z,6.90
2019-02-17T09:58:34.110Z,7.20
2019-02-17T10:01:01.165Z,7.20
2019-02-17T10:03:28.207Z,7.50
2019-02-17T10:05:55.157Z,7.23
2019-02-17T10:08:22.153Z,7.40
2019-02-17T10:10:49.096Z,7.97
2019-02-17T10:13:16.093Z,8.20
2019-02-17T10:15:43.146Z,8.47
2019-02-17T10:18:12.142Z,8.23
2019-02-17T10:20:39.082Z,9.50
2019-02-17T10:23:06.147Z,9.07
2019-02-17T10:25:34.714Z,9.23
2019-02-17T10:28:03.592Z,9.77
2019-02-17T10:30:30.629Z,8.93
2019-02-17T10:32:57.712Z,9.65
2019-02-17T10:35:24.752Z,9.10
2019-02-17T10:38:01.637Z,9.50
2019-02-17T10:40:28.718Z,9.70
2019-02-17T10:42:55.831Z,10.07
2019-02-17T10:45:24.221Z,9.80
2019-02-17T10:48:00.955Z,10.75
2019-02-17T10:50:28.040Z,11.88
2019-02-17T10:52:55.057Z,11.90
2019-02-17T10:55:22.501Z,12.63
2019-02-17T10:57:49.597Z,13.73
2019-02-17T11:00:17.586Z,14.30
2019-02-17T11:02:47.652Z,11.82
2019-02-17T11:05:15.423Z,11.73
2019-02-17T11:07:42.600Z,11.73
2019-02-17T11:10:09.811Z,12.95
2019-02-17T11:12:36.901Z,13.38
2019-02-17T11:15:03.955Z,12.52
2019-02-17T11:17:30.998Z,11.40
2019-02-17T11:19:58.047Z,12.65
2019-02-17T11:22:25.505Z,12.85
2019-02-17T11:24:52.558Z,13.93
2019-02-17T11:27:19.710Z,13.13
2019-02-17T11:29:46.752Z,12.55
2019-02-17T11:32:13.802Z,13.88
2019-02-17T11:34:40.857Z,14.80
2019-02-17T11:37:09.298Z,14.07
2019-02-17T11:39:36.343Z,16.62
2019-02-17T11:42:03.430Z,14.85
2019-02-17T11:44:31.978Z,14.98
2019-02-17T11:46:57.751Z,14.90
2019-02-17T11:49:24.808Z,16.80
2019-02-17T11:51:52.644Z,16.87
2019-02-17T11:54:19.723Z,15.30
2019-02-17T11:56:46.751Z,16.55
2019-02-17T11:59:13.803Z,16.30
2019-02-17T12:01:40.842Z,15.15
2019-02-17T12:04:09.756Z,16.95
2019-02-17T12:06:36.833Z,17.00
2019-02-17T12:09:04.979Z,16.20
2019-02-17T12:11:33.240Z,16.98
2019-02-17T12:14:00.286Z,17.02
2019-02-17T12:16:36.777Z,16.87
2019-02-17T12:18:54.605Z,16.65
2019-02-17T12:21:26.504Z,17.33
2019-02-17T12:23:59.128Z,15.70
2019-02-17T12:26:31.980Z,16.77
2019-02-17T12:28:59.881Z,17.35
2019-02-17T12:31:27.236Z,16.27
2019-02-17T12:33:56.532Z,16.35
2019-02-17T12:36:25.536Z,17.60
2019-02-17T12:38:54.435Z,17.15
2019-02-17T12:41:21.583Z,16.52
2019-02-17T12:43:49.152Z,16.80
2019-02-17T12:46:16.289Z,16.80
2019-02-17T12:48:44.671Z,15.90
2019-02-17T12:51:11.926Z,16.42
2019-02-17T12:53:38.971Z,15.48
2019-02-17T12:56:06.836Z,14.95
2019-02-17T12:58:33.885Z,16.17
2019-02-17T13:01:02.732Z,14.40
2019-02-17T13:03:31.976Z,15.98
2019-02-17T13:05:59.026Z,15.93
2019-02-17T13:08:26.280Z,14.95
2019-02-17T13:10:53.634Z,15.60
2019-02-17T13:13:20.996Z,14.48
2019-02-17T13:15:48.040Z,15.63
2019-02-17T13:18:15.088Z,15.30
2019-02-17T13:20:42.143Z,15.73
2019-02-17T13:23:09.183Z,15.02
2019-02-17T13:25:38.140Z,15.18
2019-02-17T13:28:03.385Z,15.55
2019-02-17T13:30:30.380Z,14.80
2019-02-17T13:32:57.379Z,14.52
2019-02-17T13:35:24.434Z,14.60
2019-02-17T13:37:51.476Z,13.85
2019-02-17T13:40:18.493Z,12.65
2019-02-17T13:42:47.622Z,13.52
2019-02-17T13:45:14.879Z,15.80
2019-02-17T13:47:41.928Z,15.57
2019-02-17T13:50:08.973Z,14.73
2019-02-17T13:52:35.969Z,13.35
2019-02-17T13:55:03.070Z,14.10
2019-02-17T13:57:30.118Z,15.15
2019-02-17T13:59:57.883Z,17.55
2019-02-17T14:02:24.939Z,26.10
2019-02-17T14:05:03.370Z,16.77
2019-02-17T14:07:41.705Z,14.65
2019-02-17T14:10:17.749Z,15.88
2019-02-17T14:12:54.603Z,15.75
2019-02-17T14:15:22.166Z,14.10
2019-02-17T14:17:51.427Z,15.43
2019-02-17T14:20:23.902Z,14.38
2019-02-17T14:22:51.149Z,16.20
2019-02-17T14:25:20.083Z,16.90
2019-02-17T14:27:47.644Z,16.27
2019-02-17T14:30:17.559Z,13.62
2019-02-17T14:32:45.484Z,14.68
2019-02-17T14:35:14.528Z,12.95
2019-02-17T14:37:41.631Z,14.35
2019-02-17T14:40:10.057Z,13.52
2019-02-17T14:42:37.110Z,14.30
2019-02-17T14:45:04.264Z,14.35
2019-02-17T14:47:33.147Z,12.50
2019-02-17T14:50:00.209Z,13.20
2019-02-17T14:52:27.862Z,14.07
2019-02-17T14:54:57.257Z,14.27
2019-02-17T14:57:27.098Z,14.70
2019-02-17T14:59:56.172Z,14.80
2019-02-17T15:02:23.227Z,14.45
2019-02-17T15:04:50.269Z,14.30
2019-02-17T15:07:18.546Z,14.98
2019-02-17T15:09:45.697Z,13.90
2019-02-17T15:12:12.752Z,14.73
2019-02-17T15:14:39.794Z,14.75
2019-02-17T15:17:06.843Z,14.25
2019-02-17T15:19:33.791Z,14.93
2019-02-17T15:22:00.941Z,14.00
2019-02-17T15:24:27.989Z,13.95
2019-02-17T15:26:55.045Z,15.50
2019-02-17T15:29:22.087Z,14.48
2019-02-17T15:31:49.094Z,13.95
2019-02-17T15:34:18.889Z,14.55
2019-02-17T15:36:46.310Z,13.27
2019-02-17T15:39:13.354Z,13.52
2019-02-17T15:41:41.837Z,14.75
2019-02-17T15:44:08.788Z,14.18
2019-02-17T15:46:35.830Z,16.35
2019-02-17T15:49:03.495Z,18.80
2019-02-17T15:51:30.551Z,19.77
2019-02-17T15:53:57.590Z,22.05
2019-02-17T15:56:25.356Z,23.58
2019-02-17T15:58:52.406Z,24.37
2019-02-17T16:01:20.170Z,25.80
2019-02-17T16:03:47.169Z,27.80
2019-02-17T16:06:14.310Z,29.33
2019-02-17T16:08:41.316Z,29.40
2019-02-17T16:11:11.027Z,30.58
2019-02-17T16:13:40.435Z,30.33
2019-02-17T16:16:09.448Z,30.30
2019-02-17T16:18:36.677Z,30.62
2019-02-17T16:21:03.740Z,30.83
2019-02-17T16:23:32.113Z,31.30
2019-02-17T16:25:59.266Z,31.95
2019-02-17T16:28:26.722Z,31.30
2019-02-17T16:30:53.740Z,31.92
2019-02-17T16:33:46.919Z,31.48
2019-02-17T16:36:13.982Z,32.08
2019-02-17T16:38:41.804Z,32.75
2019-02-17T16:41:09.510Z,31.48
2019-02-17T16:43:36.970Z,33.33
2019-02-17T16:46:05.604Z,33.53
2019-02-17T16:48:33.211Z,33.28
2019-02-17T16:51:02.743Z,32.58
2019-02-17T16:53:31.042Z,32.53
2019-02-17T16:55:58.146Z,32.65
2019-02-17T16:58:27.038Z,34.05
2019-02-17T17:00:54.092Z,34.42
2019-02-17T17:03:23.285Z,35.13
2019-02-17T17:05:50.334Z,34.30
2019-02-17T17:08:17.388Z,33.58
2019-02-17T17:10:44.432Z,33.83
2019-02-17T17:13:11.482Z,34.15
2019-02-17T17:15:38.534Z,34.38
2019-02-17T17:18:05.685Z,34.50
2019-02-17T17:20:32.728Z,36.00
2019-02-17T17:22:59.776Z,37.65
2019-02-17T17:25:26.830Z,37.40
2019-02-17T17:27:53.875Z,37.60
2019-02-17T17:30:20.924Z,35.25
2019-02-17T17:32:48.041Z,36.92
2019-02-17T17:35:15.127Z,36.78
2019-02-17T17:37:42.170Z,38.45
2019-02-17T17:40:09.172Z,38.78
2019-02-17T17:42:36.166Z,39.85
2019-02-17T17:45:03.522Z,40.15
2019-02-17T17:47:30.577Z,73.78
2019-02-17T17:49:59.461Z,46.58
2019-02-17T17:52:26.510Z,81.97
2019-02-17T17:54:53.564Z,66.50
2019-02-17T17:57:21.120Z,61.33
2019-02-17T17:59:52.556Z,66.05
2019-02-17T18:02:19.825Z,47.55
2019-02-17T18:04:48.021Z,43.22
2019-02-17T18:07:14.850Z,37.88
2019-02-17T18:09:41.896Z,38.10
2019-02-17T18:12:08.943Z,37.45
2019-02-17T18:14:38.248Z,35.05
2019-02-17T18:17:06.220Z,37.67
2019-02-17T18:19:33.268Z,38.85
2019-02-17T18:22:00.311Z,40.28
2019-02-17T18:24:27.364Z,39.65
2019-02-17T18:26:55.745Z,39.72
2019-02-17T18:29:22.791Z,42.50
2019-02-17T18:31:50.500Z,43.00
2019-02-17T18:34:17.352Z,39.60
2019-02-17T18:36:45.831Z,43.87
2019-02-17T18:39:12.932Z,44.33
2019-02-17T18:41:39.976Z,40.80
2019-02-17T18:44:11.946Z,34.63
2019-02-17T18:46:39.713Z,33.23
2019-02-17T18:49:08.098Z,34.23
2019-02-17T18:51:36.785Z,34.20
2019-02-17T18:54:03.821Z,30.80
2019-02-17T18:56:30.869Z,31.73
2019-02-17T18:58:57.924Z,31.17
2019-02-17T19:01:24.864Z,33.93
2019-02-17T19:03:53.296Z,37.60
2019-02-17T19:06:21.219Z,37.63
2019-02-17T19:08:48.215Z,36.50
2019-02-17T19:11:15.213Z,39.83
2019-02-17T19:13:42.155Z,44.40
2019-02-17T19:16:09.209Z,44.70
2019-02-17T19:18:36.252Z,46.30
2019-02-17T19:21:03.406Z,47.03
2019-02-17T19:23:30.450Z,44.30
2019-02-17T19:25:57.508Z,41.10
2019-02-17T19:28:24.548Z,46.53
2019-02-17T19:30:51.597Z,44.03
2019-02-17T19:33:18.653Z,56.17
2019-02-17T19:35:45.695Z,73.00
2019-02-17T19:38:12.742Z,69.23
2019-02-17T19:40:39.796Z,60.57
2019-02-17T19:43:06.840Z,55.90
2019-02-17T19:45:33.889Z,57.63
2019-02-17T19:48:00.944Z,74.63
2019-02-17T19:50:28.907Z,55.43
2019-02-17T19:52:55.956Z,51.43
2019-02-17T19:55:23.012Z,41.73
2019-02-17T19:57:50.054Z,43.93
2019-02-17T20:00:17.102Z,40.07
2019-02-17T20:02:47.022Z,42.93
2019-02-17T20:05:14.992Z,42.53
2019-02-17T20:07:42.040Z,43.60
2019-02-17T20:10:09.086Z,48.07
2019-02-17T20:12:36.138Z,43.43
2019-02-17T20:39:52.514Z,39.73
2019-02-17T20:56:09.625Z,36.73
2019-02-17T20:58:36.679Z,35.50
2019-02-17T21:01:03.726Z,35.07
2019-02-17T21:03:38.116Z,34.70
2019-02-17T21:06:12.422Z,32.67
2019-02-17T21:08:34.084Z,33.70
2019-02-17T21:11:01.133Z,35.33
2019-02-17T21:13:36.374Z,36.43
2019-02-17T21:16:03.830Z,39.90
2019-02-17T21:18:36.259Z,38.50
2019-02-17T21:21:05.713Z,37.67
2019-02-17T21:23:32.768Z,31.60
2019-02-17T21:26:00.324Z,38.73
2019-02-17T21:28:27.375Z,44.30
2019-02-17T21:30:54.420Z,47.67
2019-02-17T21:33:22.492Z,47.67
2019-02-17T21:35:51.074Z,48.00
2019-02-17T21:38:18.240Z,43.50
2019-02-17T21:40:45.339Z,43.43
2019-02-17T21:43:12.546Z,48.20
2019-02-17T21:45:39.582Z,41.47
2019-02-17T21:48:06.625Z,42.50
2019-02-17T21:50:33.770Z,45.17
2019-02-17T21:53:00.823Z,32.40
2019-02-17T21:55:28.900Z,34.37
2019-02-17T21:57:55.951Z,32.37
2019-02-17T22:00:24.118Z,32.93
2019-02-17T22:02:51.173Z,33.23
2019-02-17T22:05:18.325Z,25.73
2019-02-17T22:07:45.372Z,30.60
2019-02-17T22:10:14.368Z,34.33
2019-02-17T22:12:41.410Z,35.20
2019-02-17T22:15:08.466Z,35.70
2019-02-17T22:17:35.506Z,43.13
2019-02-17T22:20:02.556Z,40.17
2019-02-17T22:22:29.809Z,41.97
2019-02-17T22:24:56.857Z,40.93
2019-02-17T22:27:26.157Z,38.40
2019-02-17T22:29:53.212Z,39.77
2019-02-17T22:32:20.256Z,48.40
2019-02-17T22:34:47.526Z,42.83
2019-02-17T22:37:14.558Z,43.23
2019-02-17T22:39:42.742Z,40.53
2019-02-17T22:42:09.782Z,44.17
2019-02-17T22:44:36.934Z,42.50
2019-02-17T22:47:05.928Z,39.57
2019-02-17T22:49:32.978Z,42.20
2019-02-17T22:52:00.030Z,45.57
2019-02-17T22:54:27.490Z,42.30
2019-02-17T22:56:54.642Z,41.37
2019-02-17T22:59:21.538Z,39.97
2019-02-17T23:01:48.632Z,42.43
2019-02-17T23:04:15.676Z,42.63
2019-02-17T23:06:42.725Z,36.83
2019-02-17T23:09:09.779Z,39.63
2019-02-17T23:11:36.820Z,37.20
2019-02-17T23:14:04.318Z,34.17
2019-02-17T23:16:31.020Z,33.37
2019-02-17T23:18:58.077Z,26.60
2019-02-17T23:21:25.629Z,30.90
2019-02-17T23:23:52.683Z,28.17
2019-02-17T23:26:19.728Z,21.80
2019-02-17T23:28:46.777Z,25.90
2019-02-17T23:31:15.770Z,31.30
2019-02-17T23:33:42.826Z,30.90
2019-02-17T23:36:09.879Z,29.43
2019-02-17T23:38:36.915Z,26.43
2019-02-17T23:41:03.969Z,24.07
2019-02-17T23:43:31.012Z,24.17
2019-02-17T23:45:58.063Z,24.00
2019-02-17T23:48:25.115Z,26.43
2019-02-17T23:50:52.159Z,25.80
2019-02-17T23:53:19.224Z,24.20
2019-02-17T23:55:47.061Z,23.63
2019-02-17T23:58:14.125Z,28.13
